Readfield, Maine
Current Conditions -  °F | °C
As of 10:53 AM on Wednesday 26 Nov 2014 (Local Time) from KAUG Reporting Station
Overcast Overcast  
Wind Chill: 30°   Ceiling: 10000
Heat Index: 38°   Visibility: 10mi
Dew Point: 22°   Wind: 14mph
Humidity: 53%   Direction: 10°N
Pressure: 30.17"   Gusts: NA
Location:  44.39°N, 69.97°W
Report Text: KAUG 261553Z AUTO 01012KT 10SM OVC100 03/M06 A3017 RMK AO2 SLP219 T00331056
Loading
Personal Weather Stations






























Interactive Weather Map New forecast layout! Learn more

10-Day Weather Forecast

Advertisements
Track Severe Weather on mobile